Time;durP1;ratioP1;P1;durP2;ratioP2;P2;SDS_P1;SDS_P2;PMS_P1;PMS_P2;Temp;Humidity;BMP_temperature;BMP_pressure;BME280_temperature;BME280_humidity;BME280_pressure;Samples;Min_cycle;Max_cycle;Signal;HPM_P1;HPM_P2
2023/10/19 04:57:54;;;;;;;15.23;11.30;;;6.40;99.90;;;;;;5054164;28;20235;-84
2023/10/19 05:00:21;;;;;;;17.57;11.07;;;6.40;99.90;;;;;;5037881;28;20237;-88
2023/10/19 05:02:51;;;;;;;14.10;10.77;;;6.40;99.90;;;;;;5040545;28;20246;-87
2023/10/19 05:05:19;;;;;;;17.40;11.90;;;6.40;99.90;;;;;;5063509;28;20219;-89
2023/10/19 05:07:46;;;;;;;15.53;11.63;;;6.30;99.90;;;;;;5050240;28;20224;-90
2023/10/19 05:10:13;;;;;;;16.50;11.40;;;6.30;99.90;;;;;;5052261;28;20320;-90
2023/10/19 05:12:40;;;;;;;18.67;12.30;;;6.30;99.90;;;;;;5052898;28;20219;-90
2023/10/19 05:15:09;;;;;;;19.33;12.47;;;6.30;99.90;;;;;;5052474;28;20229;-89
2023/10/19 05:17:36;;;;;;;16.87;12.00;;;6.30;99.90;;;;;;5045571;28;20226;-90
2023/10/19 05:20:05;;;;;;;15.23;11.80;;;6.30;99.90;;;;;;5053380;28;20262;-90
2023/10/19 05:22:32;;;;;;;17.03;11.73;;;6.30;99.90;;;;;;5052773;28;20236;-90
2023/10/19 05:24:59;;;;;;;14.73;11.53;;;6.30;99.90;;;;;;5027382;28;20317;-90
2023/10/19 05:27:26;;;;;;;17.43;11.83;;;6.30;99.90;;;;;;5047446;28;20251;-90
2023/10/19 05:29:54;;;;;;;15.43;11.93;;;6.20;99.90;;;;;;5044206;28;20235;-89
2023/10/19 05:32:24;;;;;;;16.37;11.43;;;6.20;99.90;;;;;;5042197;28;20277;-89
2023/10/19 05:34:51;;;;;;;14.90;11.67;;;6.20;99.90;;;;;;5048253;28;20223;-86
2023/10/19 05:37:18;;;;;;;14.77;11.70;;;6.20;99.90;;;;;;5039220;28;20224;-90
2023/10/19 05:39:45;;;;;;;17.80;11.77;;;6.20;99.90;;;;;;5046027;28;20277;-90
2023/10/19 05:42:12;;;;;;;15.70;10.90;;;6.30;99.90;;;;;;5056943;28;20213;-90
2023/10/19 14:47:04;;;;;;;18.07;11.77;;;7.70;99.90;;;;;;5067507;28;20232;-89
2023/10/19 14:49:33;;;;;;;15.50;12.20;;;7.70;99.90;;;;;;5019735;28;20236;-86
2023/10/19 14:52:00;;;;;;;17.07;12.30;;;7.70;99.90;;;;;;5039562;28;20232;-88
2023/10/19 14:54:28;;;;;;;18.80;13.23;;;7.70;99.90;;;;;;5042492;28;20265;-86
2023/10/19 14:56:55;;;;;;;17.73;12.37;;;7.70;99.90;;;;;;5038689;28;20230;-87
2023/10/19 14:59:22;;;;;;;18.07;12.87;;;7.70;99.90;;;;;;5046248;28;20229;-86
2023/10/19 15:01:49;;;;;;;18.13;13.40;;;7.70;99.90;;;;;;5039697;28;20270;-87
2023/10/19 15:04:15;;;;;;;20.47;13.60;;;7.70;99.90;;;;;;5041246;28;20997;-86
2023/10/19 15:06:43;;;;;;;18.57;13.70;;;7.70;99.90;;;;;;5041976;28;20275;-87
2023/10/19 15:09:14;;;;;;;19.13;13.93;;;7.70;99.90;;;;;;5044769;28;20337;-89
2023/10/19 15:11:41;;;;;;;19.37;13.73;;;7.70;99.90;;;;;;5045554;28;20698;-87
2023/10/19 15:14:11;;;;;;;17.53;13.57;;;7.70;99.90;;;;;;5064563;28;20227;-87
2023/10/19 15:16:38;;;;;;;18.37;14.43;;;7.70;99.90;;;;;;5040551;28;20222;-86
2023/10/19 15:19:05;;;;;;;24.63;15.60;;;7.60;99.90;;;;;;5042695;28;20250;-86
2023/10/19 15:21:31;;;;;;;23.90;15.50;;;7.60;99.90;;;;;;5061126;28;20233;-86
2023/10/19 15:24:00;;;;;;;21.43;16.03;;;7.60;99.90;;;;;;5061117;28;20226;-86
2023/10/19 15:26:26;;;;;;;19.60;14.47;;;7.60;99.90;;;;;;5065203;28;20241;-87
2023/10/19 15:28:54;;;;;;;20.97;16.23;;;7.60;99.90;;;;;;5046690;28;20230;-86
2023/10/19 15:31:21;;;;;;;23.67;15.27;;;7.60;99.90;;;;;;5040420;28;20698;-86
2023/10/19 15:33:48;;;;;;;23.80;15.43;;;7.60;99.90;;;;;;5067390;28;20696;-85
2023/10/19 15:36:14;;;;;;;22.60;15.50;;;7.60;99.90;;;;;;5048128;28;20919;-86
2023/10/19 15:38:41;;;;;;;24.17;15.50;;;7.50;99.90;;;;;;5066877;28;20246;-86
2023/10/19 15:41:10;;;;;;;21.87;15.43;;;7.50;99.90;;;;;;5050688;28;20287;-86
2023/10/19 15:43:36;;;;;;;21.57;15.00;;;7.50;99.90;;;;;;5047294;28;20240;-86
2023/10/19 15:46:03;;;;;;;21.30;15.03;;;7.50;99.90;;;;;;5037714;28;20310;-87
2023/10/19 15:48:34;;;;;;;20.73;15.27;;;7.50;99.90;;;;;;5034800;28;20231;-87
2023/10/19 15:51:01;;;;;;;52.03;36.33;;;7.50;99.90;;;;;;5068983;28;20222;-87
2023/10/19 15:53:27;;;;;;;19.20;16.07;;;7.50;99.90;;;;;;5045604;28;20227;-87
2023/10/19 15:55:54;;;;;;;21.83;15.83;;;7.50;99.90;;;;;;5049734;28;20227;-85
2023/10/19 15:58:24;;;;;;;20.70;15.93;;;7.50;99.90;;;;;;5058864;28;20221;-86
2023/10/19 16:00:51;;;;;;;22.70;18.97;;;7.50;99.90;;;;;;5047286;28;20303;-86
2023/10/19 16:03:18;;;;;;;18.53;15.10;;;7.40;99.90;;;;;;5067433;28;20324;-86
2023/10/19 16:05:45;;;;;;;23.17;18.03;;;7.40;99.90;;;;;;5047005;28;20228;-86
2023/10/19 16:08:12;;;;;;;21.10;16.53;;;7.40;99.90;;;;;;5049010;28;20222;-85
2023/10/19 16:10:38;;;;;;;23.40;17.10;;;7.40;99.90;;;;;;5050524;28;20645;-85
2023/10/19 16:13:06;;;;;;;22.17;15.63;;;7.40;99.90;;;;;;5037846;28;20303;-82
2023/10/19 16:15:34;;;;;;;22.53;15.93;;;7.40;99.90;;;;;;5044841;28;20229;-86
2023/10/19 16:18:01;;;;;;;19.10;15.23;;;7.40;99.90;;;;;;5050267;28;20314;-86
2023/10/19 16:20:28;;;;;;;24.03;20.03;;;7.40;99.90;;;;;;5066938;28;20689;-85
2023/10/19 16:22:55;;;;;;;20.87;15.77;;;7.40;99.90;;;;;;5032697;28;20230;-85
2023/10/19 16:25:22;;;;;;;26.30;19.57;;;7.40;99.90;;;;;;5044032;28;20262;-85
2023/10/19 16:27:49;;;;;;;24.40;16.30;;;7.40;99.90;;;;;;5050392;28;20264;-86
2023/10/19 16:30:16;;;;;;;25.87;19.63;;;7.40;99.90;;;;;;5067400;28;20712;-85
2023/10/19 16:32:45;;;;;;;21.37;16.43;;;7.40;99.90;;;;;;5049909;28;20233;-86
2023/10/19 16:35:13;;;;;;;23.07;15.50;;;7.40;99.90;;;;;;5050207;28;20226;-86
2023/10/19 16:37:40;;;;;;;20.27;15.93;;;7.40;99.90;;;;;;5071930;28;20316;-86
2023/10/19 16:40:08;;;;;;;28.23;25.40;;;7.40;99.90;;;;;;5053480;28;20238;-86
2023/10/19 16:42:35;;;;;;;23.07;16.57;;;7.40;99.90;;;;;;5067620;28;20597;-86
2023/10/19 16:45:03;;;;;;;22.60;16.60;;;7.40;99.90;;;;;;5048766;28;20225;-86
2023/10/19 16:47:30;;;;;;;22.60;16.17;;;7.40;99.90;;;;;;5047089;28;20233;-85
2023/10/19 16:49:58;;;;;;;21.97;15.40;;;7.40;99.90;;;;;;5049921;28;20765;-85
2023/10/19 16:52:26;;;;;;;20.67;16.73;;;7.30;99.90;;;;;;5052871;28;20291;-86
2023/10/19 16:54:53;;;;;;;21.73;16.70;;;7.40;99.90;;;;;;5048524;28;20619;-86
2023/10/19 16:57:20;;;;;;;21.77;15.57;;;7.40;99.90;;;;;;5052884;28;20222;-85
2023/10/19 16:59:50;;;;;;;20.10;16.57;;;7.30;99.90;;;;;;5053445;28;20231;-85
2023/10/19 17:02:17;;;;;;;35.90;32.07;;;7.30;99.90;;;;;;5071386;28;20229;-84
2023/10/19 17:04:45;;;;;;;28.47;20.40;;;7.30;99.90;;;;;;5054068;28;20735;-85
2023/10/19 17:07:13;;;;;;;47.00;37.07;;;7.30;99.90;;;;;;5045043;28;20240;-85
2023/10/19 17:09:39;;;;;;;28.10;18.67;;;7.30;99.90;;;;;;5042167;28;20297;-84
2023/10/19 17:12:08;;;;;;;27.57;19.37;;;7.20;99.90;;;;;;5049335;28;20276;-83
2023/10/19 17:14:35;;;;;;;30.60;20.70;;;7.20;99.90;;;;;;5034171;28;20781;-83
2023/10/19 17:17:02;;;;;;;70.60;24.43;;;7.20;99.90;;;;;;5037480;28;20225;-84
2023/10/19 17:19:30;;;;;;;34.70;21.07;;;7.10;99.90;;;;;;5035469;28;20323;-86
2023/10/19 17:22:06;;;;;;;38.77;23.87;;;7.10;99.90;;;;;;5046834;28;20252;-85
2023/10/19 17:24:36;;;;;;;28.37;19.93;;;7.00;99.90;;;;;;5031893;28;20264;-87
2023/10/19 17:30:05;;;;;;;;;;;;;;;;;;;;;
2023/10/19 17:32:34;;;;;;;28.07;19.50;;;7.10;99.90;;;;;;5020399;28;20224;-86
2023/10/19 17:35:31;;;;;;;27.07;19.67;;;6.90;99.90;;;;;;5018896;28;20230;-85
2023/10/19 17:38:00;;;;;;;26.73;19.00;;;6.90;99.90;;;;;;5050208;28;20237;-86
2023/10/19 17:40:28;;;;;;;25.17;18.83;;;7.00;99.90;;;;;;5045044;28;20225;-86
2023/10/19 17:42:56;;;;;;;28.27;23.03;;;6.90;99.90;;;;;;5035864;28;20236;-87
2023/10/19 17:45:25;;;;;;;28.03;24.90;;;6.90;99.90;;;;;;5022517;28;20282;-87
2023/10/19 17:48:01;;;;;;;25.63;20.07;;;6.90;99.90;;;;;;5026662;28;20307;-85
2023/10/19 17:50:31;;;;;;;28.13;21.47;;;6.90;99.90;;;;;;5032687;28;20230;-85
2023/10/19 17:52:59;;;;;;;25.87;20.47;;;6.90;99.90;;;;;;5038247;28;20250;-87
2023/10/19 17:55:27;;;;;;;24.70;19.30;;;6.90;99.90;;;;;;5057673;28;20711;-86
2023/10/19 17:57:55;;;;;;;27.67;18.50;;;6.90;99.90;;;;;;5033009;28;20237;-88
2023/10/19 18:00:23;;;;;;;24.13;18.60;;;6.90;99.90;;;;;;5038621;28;20220;-90
2023/10/19 18:02:54;;;;;;;22.00;17.77;;;6.90;99.90;;;;;;5061051;28;20312;-88
2023/10/19 18:05:23;;;;;;;28.13;20.47;;;6.90;99.90;;;;;;5041598;28;20221;-89
2023/10/19 18:07:53;;;;;;;26.87;19.60;;;6.90;99.90;;;;;;5055502;28;20326;-89
2023/10/19 18:10:28;;;;;;;27.07;19.00;;;6.90;99.90;;;;;;5051612;28;20479;-88
2023/10/19 18:13:04;;;;;;;25.40;18.47;;;6.90;99.90;;;;;;5036939;28;20232;-90
2023/10/19 18:15:31;;;;;;;25.50;18.73;;;6.90;99.90;;;;;;5038841;28;20221;-89
2023/10/19 18:18:00;;;;;;;23.83;18.73;;;6.90;99.90;;;;;;5043266;28;20722;-86
2023/10/19 18:20:30;;;;;;;32.47;18.50;;;6.90;99.90;;;;;;5049046;28;20232;-86
2023/10/19 18:22:57;;;;;;;26.63;18.47;;;6.90;99.90;;;;;;5060382;28;20318;-86
2023/10/19 18:25:27;;;;;;;25.27;18.13;;;6.90;99.90;;;;;;5045035;28;20303;-86
2023/10/19 18:27:56;;;;;;;24.67;19.90;;;6.90;99.90;;;;;;5045834;28;20814;-87
2023/10/19 18:30:22;;;;;;;23.70;18.37;;;6.90;99.90;;;;;;5042639;28;20774;-88
2023/10/19 18:32:50;;;;;;;25.07;18.57;;;6.90;99.90;;;;;;5043638;28;20222;-88
2023/10/19 18:35:17;;;;;;;23.00;18.10;;;6.90;99.90;;;;;;5053296;28;20828;-88
2023/10/19 18:37:44;;;;;;;24.20;17.80;;;6.90;99.90;;;;;;5044632;28;20270;-87
2023/10/19 18:40:13;;;;;;;22.77;17.60;;;6.90;99.90;;;;;;5060242;28;20685;-88
2023/10/19 18:42:40;;;;;;;25.77;17.70;;;6.90;99.90;;;;;;5039291;28;20584;-88
2023/10/19 18:45:10;;;;;;;24.80;18.97;;;7.00;99.90;;;;;;5058910;28;20750;-88
2023/10/19 18:47:38;;;;;;;21.80;16.57;;;6.90;99.90;;;;;;5056862;28;20245;-88
2023/10/19 18:50:08;;;;;;;23.83;17.00;;;6.90;99.90;;;;;;5040045;28;20236;-87
2023/10/19 18:52:35;;;;;;;33.17;16.80;;;6.90;99.90;;;;;;5064117;28;20227;-88
2023/10/19 18:55:02;;;;;;;18.90;15.10;;;6.90;99.90;;;;;;5045285;28;20302;-88
2023/10/19 18:57:29;;;;;;;21.83;16.30;;;6.90;99.90;;;;;;5040954;28;20221;-87
2023/10/19 18:59:55;;;;;;;22.17;17.07;;;6.90;99.90;;;;;;5042088;28;20876;-87
2023/10/19 19:02:24;;;;;;;23.33;18.17;;;6.90;99.90;;;;;;5044192;28;20217;-86
2023/10/19 19:04:51;;;;;;;29.47;22.63;;;6.90;99.90;;;;;;5040594;28;20236;-87
2023/10/19 19:07:18;;;;;;;31.03;21.97;;;6.90;99.90;;;;;;5055525;28;20964;-87
2023/10/19 19:09:45;;;;;;;20.73;16.07;;;6.90;99.90;;;;;;5037996;28;20305;-87
2023/10/19 19:12:11;;;;;;;19.77;14.87;;;6.90;99.90;;;;;;5040685;28;20240;-84
2023/10/19 19:14:38;;;;;;;18.83;14.37;;;6.80;99.90;;;;;;5049946;28;20234;-88
2023/10/19 19:17:05;;;;;;;17.23;14.47;;;6.90;99.90;;;;;;5047914;28;20229;-84
2023/10/19 19:19:33;;;;;;;18.83;14.40;;;6.90;99.90;;;;;;5042824;28;20390;-85
2023/10/19 19:22:00;;;;;;;20.57;14.63;;;6.90;99.90;;;;;;5046289;28;20229;-85
2023/10/19 19:24:27;;;;;;;18.47;14.17;;;6.90;99.90;;;;;;5038713;28;20246;-85
2023/10/19 19:26:54;;;;;;;18.17;14.83;;;6.80;99.90;;;;;;5037201;28;20278;-85
2023/10/19 19:29:22;;;;;;;17.20;14.23;;;6.90;99.90;;;;;;5040529;28;20226;-85
2023/10/19 19:31:50;;;;;;;17.37;14.63;;;6.80;99.90;;;;;;5046179;28;20222;-85
2023/10/19 19:34:17;;;;;;;18.67;14.70;;;6.80;99.90;;;;;;5068994;28;20768;-85
2023/10/19 19:36:46;;;;;;;19.77;15.10;;;6.80;99.90;;;;;;5070542;28;20308;-85
2023/10/19 19:39:17;;;;;;;18.63;14.60;;;6.90;99.90;;;;;;5043885;28;20225;-86
2023/10/19 19:41:45;;;;;;;17.93;14.20;;;6.80;99.90;;;;;;5055890;28;20221;-86
2023/10/19 19:44:13;;;;;;;19.00;14.47;;;6.80;99.90;;;;;;5061200;28;20312;-85
2023/10/19 19:46:40;;;;;;;19.97;14.70;;;6.90;99.90;;;;;;5053942;28;20230;-86
2023/10/19 19:49:09;;;;;;;21.17;14.47;;;6.80;99.90;;;;;;5040476;28;20262;-87
2023/10/19 19:51:36;;;;;;;18.10;14.70;;;6.80;99.90;;;;;;5039714;28;20806;-86
2023/10/19 19:54:04;;;;;;;17.63;14.13;;;6.80;99.90;;;;;;5056767;28;20293;-86
2023/10/19 19:56:32;;;;;;;17.30;14.13;;;6.80;99.90;;;;;;5057540;28;20234;-86
2023/10/19 19:58:59;;;;;;;16.00;13.10;;;6.80;99.90;;;;;;5047943;28;20229;-86
2023/10/19 20:01:26;;;;;;;14.87;12.83;;;6.80;99.90;;;;;;5039776;28;20294;-87
2023/10/19 20:03:54;;;;;;;16.27;13.30;;;6.80;99.90;;;;;;5045117;28;20236;-87
2023/10/19 20:06:21;;;;;;;14.90;12.13;;;6.80;99.90;;;;;;5046090;28;20225;-86
2023/10/19 20:08:48;;;;;;;16.27;12.70;;;6.80;99.90;;;;;;5046068;28;20221;-85
2023/10/19 20:11:22;;;;;;;15.20;12.53;;;6.80;99.90;;;;;;5048781;28;20233;-83
2023/10/19 20:13:49;;;;;;;13.77;11.50;;;6.80;99.90;;;;;;5053172;28;20225;-81
2023/10/19 20:16:16;;;;;;;14.03;11.67;;;6.80;99.90;;;;;;5055874;28;20704;-81
2023/10/19 20:18:43;;;;;;;15.47;12.30;;;6.80;99.90;;;;;;5069699;28;20251;-81
2023/10/19 20:21:10;;;;;;;13.37;11.33;;;6.80;99.90;;;;;;5051006;28;20368;-80
2023/10/19 20:23:38;;;;;;;14.30;11.50;;;6.80;99.90;;;;;;5052799;28;20737;-80
2023/10/19 20:26:05;;;;;;;14.27;11.50;;;6.80;99.90;;;;;;5041675;28;20233;-85
2023/10/19 20:28:34;;;;;;;13.03;10.70;;;6.80;99.90;;;;;;5047672;28;20242;-84
2023/10/19 20:31:01;;;;;;;12.17;10.70;;;6.80;99.90;;;;;;5066080;28;20223;-82
2023/10/19 20:33:28;;;;;;;12.00;9.90;;;6.80;99.90;;;;;;5048220;28;20230;-84
2023/10/19 20:35:55;;;;;;;68.03;12.83;;;6.80;99.90;;;;;;5052422;28;20224;-86
2023/10/19 20:38:22;;;;;;;17.80;10.67;;;6.80;99.90;;;;;;5039549;28;20640;-88
2023/10/19 20:40:51;;;;;;;16.23;9.87;;;6.80;99.90;;;;;;5072585;28;20233;-88
2023/10/19 20:43:20;;;;;;;11.03;9.83;;;6.80;99.90;;;;;;5043376;28;20281;-88
2023/10/19 20:45:50;;;;;;;13.87;9.77;;;6.80;99.90;;;;;;5044478;28;20267;-87
2023/10/19 20:48:17;;;;;;;10.63;8.93;;;6.80;99.90;;;;;;5043317;28;20225;-87
2023/10/19 20:50:44;;;;;;;10.13;8.77;;;6.80;99.90;;;;;;5069344;28;20645;-85
2023/10/19 20:53:12;;;;;;;9.20;8.27;;;6.80;99.90;;;;;;5043031;28;20716;-85
2023/10/19 20:55:40;;;;;;;11.10;8.70;;;6.80;99.90;;;;;;5058445;28;20231;-85
2023/10/19 20:58:08;;;;;;;13.97;8.33;;;6.80;99.90;;;;;;5041674;28;20282;-86
2023/10/19 21:00:35;;;;;;;10.80;8.67;;;6.80;99.90;;;;;;5037176;28;20253;-86
2023/10/19 21:03:03;;;;;;;10.57;7.80;;;6.80;99.90;;;;;;5061700;28;20229;-86
2023/10/19 21:05:30;;;;;;;8.50;7.60;;;6.80;99.90;;;;;;5040652;28;20264;-84
2023/10/19 21:07:57;;;;;;;29.87;8.80;;;6.80;99.90;;;;;;5045340;28;20225;-85
2023/10/19 21:10:23;;;;;;;8.30;7.40;;;6.80;99.90;;;;;;5046559;28;20310;-85
2023/10/19 21:12:50;;;;;;;8.93;7.40;;;6.80;99.90;;;;;;5063659;28;20305;-85
2023/10/19 21:15:17;;;;;;;7.70;6.90;;;6.80;99.90;;;;;;5039091;28;20356;-85
2023/10/19 21:17:45;;;;;;;9.47;7.13;;;6.80;99.90;;;;;;5037639;28;20230;-85
2023/10/19 21:20:14;;;;;;;7.97;7.17;;;6.80;99.90;;;;;;5046426;28;20228;-85
2023/10/19 21:22:42;;;;;;;7.63;6.80;;;6.80;99.90;;;;;;5059772;28;20221;-84
2023/10/19 21:25:11;;;;;;;9.47;7.37;;;6.80;99.90;;;;;;5053404;28;20216;-85
2023/10/19 21:27:37;;;;;;;8.97;6.90;;;6.80;99.90;;;;;;5036462;28;20987;-85
2023/10/19 21:30:05;;;;;;;8.07;6.97;;;6.80;99.90;;;;;;5029943;28;20236;-85
2023/10/19 21:32:33;;;;;;;8.13;6.73;;;6.80;99.90;;;;;;5039364;28;20602;-86
2023/10/19 21:34:59;;;;;;;8.10;6.87;;;6.80;99.90;;;;;;5039182;28;20763;-85
2023/10/19 21:37:27;;;;;;;9.03;7.33;;;6.80;99.90;;;;;;5048584;28;20907;-86
2023/10/19 21:39:54;;;;;;;9.57;7.20;;;6.80;99.90;;;;;;5034070;28;20221;-86
2023/10/19 21:42:21;;;;;;;7.80;6.50;;;6.80;99.90;;;;;;5038576;28;20798;-85
2023/10/19 21:44:48;;;;;;;6.77;5.93;;;6.80;99.90;;;;;;5038867;28;20257;-85
2023/10/19 21:47:16;;;;;;;6.70;5.87;;;6.80;99.90;;;;;;5039292;28;20228;-86
2023/10/19 21:49:43;;;;;;;7.63;6.47;;;6.80;99.90;;;;;;5036330;28;20254;-87
2023/10/19 21:52:10;;;;;;;7.67;6.47;;;6.70;99.90;;;;;;5037911;28;20229;-85
2023/10/19 21:54:38;;;;;;;6.63;5.97;;;6.70;99.90;;;;;;5036809;28;20222;-85
2023/10/19 21:57:05;;;;;;;7.10;6.40;;;6.70;99.90;;;;;;5036964;28;20780;-85
2023/10/19 21:59:32;;;;;;;6.57;5.97;;;6.70;99.90;;;;;;5055358;28;20275;-85
2023/10/19 22:01:59;;;;;;;6.33;5.70;;;6.70;99.90;;;;;;5056145;28;20266;-84
2023/10/19 22:04:26;;;;;;;7.27;6.33;;;6.70;99.90;;;;;;5051385;28;20230;-85
2023/10/19 22:06:53;;;;;;;6.53;5.60;;;6.80;99.90;;;;;;5037343;28;20316;-85
2023/10/19 22:09:22;;;;;;;7.00;5.47;;;6.70;99.90;;;;;;5053004;28;20232;-85
2023/10/19 22:11:50;;;;;;;5.80;5.20;;;6.80;99.90;;;;;;5034813;28;20612;-85
2023/10/19 22:14:17;;;;;;;6.20;5.60;;;6.80;99.90;;;;;;5023613;28;20231;-86
2023/10/19 22:16:44;;;;;;;7.07;5.40;;;6.80;99.90;;;;;;5040250;28;20237;-85
2023/10/19 22:19:11;;;;;;;5.87;4.70;;;6.70;99.90;;;;;;5045697;28;20255;-87
2023/10/19 22:21:38;;;;;;;5.07;4.63;;;6.80;99.90;;;;;;5051352;28;20916;-85
2023/10/19 22:24:07;;;;;;;5.63;4.90;;;6.80;99.90;;;;;;5040140;28;20237;-85
2023/10/19 22:26:34;;;;;;;5.27;4.77;;;6.80;99.90;;;;;;5031488;28;20233;-87
2023/10/19 22:29:02;;;;;;;4.53;4.13;;;6.80;99.90;;;;;;5056154;28;20228;-86
2023/10/19 22:31:29;;;;;;;5.10;4.60;;;6.80;99.90;;;;;;5024257;28;20298;-86
2023/10/19 22:33:56;;;;;;;6.03;5.00;;;6.80;99.90;;;;;;5034535;28;20318;-85
2023/10/19 22:36:23;;;;;;;4.40;4.00;;;6.80;99.90;;;;;;5033153;28;20643;-87
2023/10/19 22:38:49;;;;;;;5.13;4.43;;;6.80;99.90;;;;;;5036781;28;20249;-86
2023/10/19 22:41:16;;;;;;;5.50;4.57;;;6.80;99.90;;;;;;5033877;28;20340;-87
2023/10/19 22:43:44;;;;;;;4.60;4.20;;;6.80;99.90;;;;;;5035024;28;20228;-86
2023/10/19 22:46:12;;;;;;;5.80;5.20;;;6.80;99.90;;;;;;5049951;28;21017;-86
2023/10/19 22:48:40;;;;;;;4.97;4.47;;;6.80;99.90;;;;;;5031984;28;20923;-86
2023/10/19 22:51:06;;;;;;;4.30;3.90;;;6.80;99.90;;;;;;5054398;28;20935;-85
2023/10/19 22:53:37;;;;;;;4.90;4.37;;;6.80;99.90;;;;;;5032994;28;20236;-86
2023/10/19 22:56:04;;;;;;;4.90;3.83;;;6.80;99.90;;;;;;5052674;28;20891;-86
2023/10/19 22:58:31;;;;;;;5.10;4.27;;;6.80;99.90;;;;;;5045075;28;20249;-86
2023/10/19 23:00:58;;;;;;;4.40;4.00;;;6.90;99.90;;;;;;5037722;28;20308;-84
2023/10/19 23:03:26;;;;;;;3.73;3.43;;;6.80;99.90;;;;;;5053894;28;20243;-87
2023/10/19 23:05:53;;;;;;;4.43;3.57;;;6.90;99.90;;;;;;5031669;28;21006;-85
2023/10/19 23:08:20;;;;;;;3.53;3.23;;;6.90;99.90;;;;;;5036027;28;20217;-85
2023/10/19 23:10:48;;;;;;;3.20;2.90;;;6.90;99.90;;;;;;5039225;28;20696;-86
2023/10/19 23:13:17;;;;;;;3.17;2.37;;;6.90;99.90;;;;;;5031022;28;20708;-85
2023/10/19 23:15:45;;;;;;;2.70;2.50;;;6.90;99.90;;;;;;5036753;28;20229;-85
2023/10/19 23:18:15;;;;;;;2.60;2.37;;;6.90;99.90;;;;;;5033630;28;20213;-84
2023/10/19 23:20:49;;;;;;;2.50;2.30;;;6.90;99.90;;;;;;5033008;28;20237;-85
2023/10/19 23:23:19;;;;;;;2.77;2.50;;;6.90;99.90;;;;;;5039411;28;20739;-84
2023/10/19 23:25:51;;;;;;;2.93;2.50;;;6.90;99.90;;;;;;5057314;28;20226;-85
2023/10/19 23:28:19;;;;;;;2.73;2.53;;;6.90;99.90;;;;;;5038477;28;20775;-86
2023/10/19 23:30:46;;;;;;;2.60;2.40;;;6.90;99.90;;;;;;5031619;28;20219;-86
2023/10/19 23:33:13;;;;;;;2.80;2.20;;;6.90;99.90;;;;;;5056469;28;20233;-84
2023/10/19 23:35:40;;;;;;;2.93;2.00;;;6.90;99.90;;;;;;5035551;28;20306;-86
2023/10/19 23:38:08;;;;;;;2.50;2.30;;;6.90;99.90;;;;;;5034066;28;20325;-85
2023/10/19 23:40:35;;;;;;;2.40;2.20;;;6.80;99.90;;;;;;5054721;28;20321;-86
2023/10/19 23:43:02;;;;;;;2.00;1.90;;;6.90;99.90;;;;;;5053213;28;20814;-86
2023/10/19 23:45:30;;;;;;;2.43;2.10;;;6.90;99.90;;;;;;5058414;28;21059;-88
2023/10/19 23:47:57;;;;;;;2.40;2.20;;;6.90;99.90;;;;;;5059195;28;20254;-86
2023/10/19 23:50:24;;;;;;;2.87;2.20;;;6.90;99.90;;;;;;5041958;28;20240;-85
2023/10/19 23:52:53;;;;;;;2.13;2.00;;;6.90;99.90;;;;;;5042686;28;20237;-85
2023/10/19 23:55:22;;;;;;;2.60;2.20;;;6.80;99.90;;;;;;5043068;28;20397;-86
2023/10/19 23:57:49;;;;;;;2.20;2.00;;;6.90;99.90;;;;;;5041993;28;20234;-88
